Condicions actuals
Majoritàriament Clar



Pressió
1010.92 (hPa) - 29.85 (inHG)
Visibilitat:

10.0 (km) - 6.2 (miles)
Base de Núvols

Clar (Mts) - Clar (Feets)
   Temperatura
19  °C
Temperatura
8  °C
P.ros.
49  %
 Humitat
   Velocitat del Vent
0.9  m/s
2  mph
3  km/h
2  kts
   Vent Direcció
N
45°
E
90°
135°
S
180°
225°
O
270°
315°
 260°

Del   Oest
   Airport Data
LELL
Sabadell Airfield
Metar :LELL 270930Z 26002KT CAVOK 19/08 Q1011
Tue 27th September 11:30 am
   Raw Metar Info
Raw METAR is the most common format in the world for the transmission of observational weather data. It is highly standardized through the International Civil Aviation Organization (ICAO), which allows it to be understood throughout most of the world.
   API Info
Data Provided by
https://www.checkwx.com/weather/LELL

Aviation Weather providing METAR, TAF, AIRMET, SIGMET and OUTLOOK Weather Reports
   © Info
CSS/SVG/PHP scripts were developed by weather34.com for use in the weather34 template © 2015-2022

Guide Info provided by Metar-Wikipedia